PWSweather.com
Personal Weather Stations
Station Observations
RIORANCHO
Corrales Heights, Rio Rancho, NM 87124

Corrales HeightsRio Rancho, NM 87124

Lat: 35.241928, Lon: -106.647095

Elevation: 5297

Station Type: Davis Vantage Pro 2 Plus

http://www.weatherriorancho.com

High Low Average
Temperature 40.2°F4.6°C 27.6°F-2.4°C 34.3°F1.3°C
Dew Point 32.8°F0.4°C 12.9°F-10.6°C 20.4°F-6.4°C
Winds 15.0 mph 24.1 kmh Calm Calm 5.0 mph SW8.0 kmh SW
Wind Gusts 28.8 mph46.3 kmh -- 9.0 mph14.5 kmh
Humidity 91% 40% 58%
Pressure 30.12 in1020.0 mb 29.86 in1011.2 mb -
Precipitation 0.03 in0.8 mm - -
Hour Temp Dew Point Humidity Winds Wind Gusts Pressure Precip Precip Rate Daily Precip Total
12:00 AM 46.0°F7.8°C 34.1°F1.2°C 63% 2.3 mph SW3.7 kmh SW 11.5 mph18.5 kmh 29.86 in1011.2 mb - 0.00 in0.0 mm 0.00 in0.0 mm
12:10 AM 42.3°F5.7°C 32.4°F0.2°C 68% 9.2 mph W14.8 kmh W 15.0 mph24.1 kmh 29.86 in1011.2 mb - 0.00 in0.0 mm 0.00 in0.0 mm
12:20 AM 39.7°F4.3°C 32.7°F0.4°C 76% 8.1 mph W13.0 kmh W 11.5 mph18.5 kmh 29.88 in1011.9 mb - 0.00 in0.0 mm 0.00 in0.0 mm
12:30 AM 38.9°F3.8°C 33.3°F0.7°C 80% 3.5 mph WNW5.6 kmh WNW 3.5 mph5.6 kmh 29.89 in1012.2 mb - 0.00 in0.0 mm 0.00 in0.0 mm
12:40 AM 38.6°F3.7°C 33.3°F0.7°C 81% 1.2 mph W1.9 kmh W 9.2 mph14.8 kmh 29.90 in1012.5 mb - 0.00 in0.0 mm 0.00 in0.0 mm
12:50 AM 37.4°F3.0°C 32.7°F0.4°C 83% 3.5 mph NW5.6 kmh NW 4.6 mph7.4 kmh 29.91 in1012.9 mb - 0.00 in0.0 mm 0.00 in0.0 mm
01:00 AM 36.7°F2.6°C 32.3°F0.2°C 84% 1.2 mph NW1.9 kmh NW 1.2 mph1.9 kmh 29.91 in1012.9 mb - 0.01 in0.3 mm 0.01 in0.3 mm
01:10 AM 35.5°F1.9°C 31.7°F-0.2°C 86% 3.5 mph NE5.6 kmh NE 6.9 mph11.1 kmh 29.90 in1012.5 mb - 0.01 in0.3 mm 0.01 in0.3 mm
01:20 AM 35.2°F1.8°C 32.0°F0.0°C 88% 1.2 mph NE1.9 kmh NE 3.5 mph5.6 kmh 29.91 in1012.9 mb - 0.00 in0.0 mm 0.01 in0.3 mm
01:30 AM 35.1°F1.7°C 32.2°F0.1°C 89% Calm Calm 2.3 mph3.7 kmh 29.90 in1012.5 mb - 0.01 in0.3 mm 0.02 in0.5 mm
01:40 AM 35.1°F1.7°C 32.2°F0.1°C 89% 4.6 mph NE7.4 kmh NE 9.2 mph14.8 kmh 29.90 in1012.5 mb - 0.00 in0.0 mm 0.02 in0.5 mm
01:50 AM 34.7°F1.5°C 32.0°F0.0°C 90% Calm Calm 2.3 mph3.7 kmh 29.91 in1012.9 mb - 0.00 in0.0 mm 0.02 in0.5 mm
02:00 AM 34.7°F1.5°C 32.1°F0.1°C 90% Calm Calm 1.2 mph1.9 kmh 29.91 in1012.9 mb - 0.00 in0.0 mm 0.02 in0.5 mm
02:10 AM 34.8°F1.6°C 32.4°F0.2°C 91% Calm Calm -- 29.91 in1012.9 mb - 0.00 in0.0 mm 0.02 in0.5 mm
02:20 AM 35.0°F1.7°C 32.7°F0.4°C 91% Calm Calm -- 29.91 in1012.9 mb - 0.00 in0.0 mm 0.02 in0.5 mm
02:30 AM 35.2°F1.8°C 32.8°F0.4°C 91% Calm Calm -- 29.91 in1012.9 mb - 0.00 in0.0 mm 0.02 in0.5 mm
02:40 AM 35.2°F1.8°C 32.8°F0.4°C 91% Calm Calm -- 29.91 in1012.9 mb - 0.00 in0.0 mm 0.02 in0.5 mm
02:50 AM 35.0°F1.7°C 32.7°F0.4°C 91% Calm Calm -- 29.90 in1012.5 mb - 0.00 in0.0 mm 0.02 in0.5 mm
03:00 AM 34.8°F1.6°C 32.4°F0.2°C 91% Calm Calm -- 29.90 in1012.5 mb - 0.00 in0.0 mm 0.02 in0.5 mm
03:10 AM 34.8°F1.6°C 32.4°F0.2°C 91% Calm Calm 3.5 mph5.6 kmh 29.90 in1012.5 mb - 0.00 in0.0 mm 0.02 in0.5 mm
03:20 AM 34.8°F1.6°C 32.2°F0.1°C 90% Calm Calm -- 29.90 in1012.5 mb - 0.00 in0.0 mm 0.02 in0.5 mm
03:30 AM 34.7°F1.5°C 32.1°F0.1°C 90% Calm Calm -- 29.89 in1012.2 mb - 0.00 in0.0 mm 0.02 in0.5 mm
03:40 AM 34.3°F1.3°C 31.7°F-0.2°C 90% Calm Calm 2.3 mph3.7 kmh 29.89 in1012.2 mb - 0.00 in0.0 mm 0.02 in0.5 mm
03:50 AM 34.5°F1.4°C 31.9°F-0.1°C 90% 2.3 mph S3.7 kmh S 3.5 mph5.6 kmh 29.89 in1012.2 mb - 0.00 in0.0 mm 0.02 in0.5 mm
04:00 AM 34.5°F1.4°C 31.3°F-0.4°C 88% 5.8 mph SSW9.3 kmh SSW 6.9 mph11.1 kmh 29.89 in1012.2 mb - 0.00 in0.0 mm 0.02 in0.5 mm
04:10 AM 34.7°F1.5°C 30.1°F-1.1°C 83% 1.2 mph SSW1.9 kmh SSW 4.6 mph7.4 kmh 29.89 in1012.2 mb - 0.00 in0.0 mm 0.02 in0.5 mm
04:20 AM 34.2°F1.2°C 28.7°F-1.8°C 80% 3.5 mph SW5.6 kmh SW 8.1 mph13.0 kmh 29.89 in1012.2 mb - 0.00 in0.0 mm 0.02 in0.5 mm
04:30 AM 33.4°F0.8°C 26.3°F-3.2°C 75% 6.9 mph SW11.1 kmh SW 18.4 mph29.6 kmh 29.89 in1012.2 mb - 0.00 in0.0 mm 0.02 in0.5 mm
04:40 AM 34.2°F1.2°C 25.1°F-3.8°C 69% 8.1 mph SW13.0 kmh SW 15.0 mph24.1 kmh 29.89 in1012.2 mb - 0.00 in0.0 mm 0.02 in0.5 mm
04:50 AM 34.4°F1.3°C 24.6°F-4.1°C 67% 5.8 mph SW9.3 kmh SW 9.2 mph14.8 kmh 29.89 in1012.2 mb - 0.00 in0.0 mm 0.02 in0.5 mm
05:00 AM 34.2°F1.2°C 24.0°F-4.4°C 66% 5.8 mph SSW9.3 kmh SSW 9.2 mph14.8 kmh 29.89 in1012.2 mb - 0.00 in0.0 mm 0.02 in0.5 mm
05:10 AM 33.8°F1.0°C 22.5°F-5.3°C 63% 8.1 mph SSW13.0 kmh SSW 11.5 mph18.5 kmh 29.88 in1011.9 mb - 0.00 in0.0 mm 0.02 in0.5 mm
05:20 AM 33.3°F0.7°C 22.4°F-5.3°C 64% 4.6 mph WSW7.4 kmh WSW 8.1 mph13.0 kmh 29.88 in1011.9 mb - 0.00 in0.0 mm 0.02 in0.5 mm
05:30 AM 32.5°F0.3°C 22.4°F-5.3°C 66% 3.5 mph SW5.6 kmh SW 5.8 mph9.3 kmh 29.88 in1011.9 mb - 0.00 in0.0 mm 0.02 in0.5 mm
05:40 AM 32.0°F0.0°C 22.3°F-5.4°C 67% 3.5 mph SW5.6 kmh SW 4.6 mph7.4 kmh 29.88 in1011.9 mb - 0.00 in0.0 mm 0.02 in0.5 mm
05:50 AM 31.5°F-0.3°C 22.1°F-5.5°C 68% 2.3 mph SSW3.7 kmh SSW 4.6 mph7.4 kmh 29.87 in1011.5 mb - 0.00 in0.0 mm 0.02 in0.5 mm
06:00 AM 31.1°F-0.5°C 22.1°F-5.5°C 69% 4.6 mph S7.4 kmh S 10.4 mph16.7 kmh 29.86 in1011.2 mb - 0.00 in0.0 mm 0.02 in0.5 mm
06:10 AM 30.9°F-0.6°C 22.2°F-5.4°C 70% 2.3 mph SSW3.7 kmh SSW 6.9 mph11.1 kmh 29.86 in1011.2 mb - 0.00 in0.0 mm 0.02 in0.5 mm
06:20 AM 31.0°F-0.6°C 22.0°F-5.6°C 69% 4.6 mph SW7.4 kmh SW 5.8 mph9.3 kmh 29.86 in1011.2 mb - 0.00 in0.0 mm 0.02 in0.5 mm
06:30 AM 31.3°F-0.4°C 21.6°F-5.8°C 67% 4.6 mph SW7.4 kmh SW 6.9 mph11.1 kmh 29.86 in1011.2 mb - 0.00 in0.0 mm 0.02 in0.5 mm
06:40 AM 31.5°F-0.3°C 21.4°F-5.9°C 66% 2.3 mph SW3.7 kmh SW 6.9 mph11.1 kmh 29.86 in1011.2 mb - 0.00 in0.0 mm 0.02 in0.5 mm
06:50 AM 31.3°F-0.4°C 21.6°F-5.8°C 67% 2.3 mph SW3.7 kmh SW 4.6 mph7.4 kmh 29.87 in1011.5 mb - 0.00 in0.0 mm 0.02 in0.5 mm
07:00 AM 30.5°F-0.8°C 22.2°F-5.4°C 71% 1.2 mph SW1.9 kmh SW 2.3 mph3.7 kmh 29.86 in1011.2 mb - 0.00 in0.0 mm 0.02 in0.5 mm
07:10 AM 30.1°F-1.1°C 22.1°F-5.5°C 72% 3.5 mph SSE5.6 kmh SSE 5.8 mph9.3 kmh 29.86 in1011.2 mb - 0.00 in0.0 mm 0.02 in0.5 mm
07:20 AM 30.3°F-0.9°C 22.0°F-5.6°C 71% 5.8 mph ESE9.3 kmh ESE 11.5 mph18.5 kmh 29.86 in1011.2 mb - 0.00 in0.0 mm 0.02 in0.5 mm
07:30 AM 31.0°F-0.6°C 21.3°F-5.9°C 67% Calm Calm -- 29.87 in1011.5 mb - 0.00 in0.0 mm 0.02 in0.5 mm
07:40 AM 31.2°F-0.4°C 21.2°F-6.0°C 66% Calm Calm 3.5 mph5.6 kmh 29.88 in1011.9 mb - 0.00 in0.0 mm 0.02 in0.5 mm
07:50 AM 31.4°F-0.3°C 20.6°F-6.3°C 64% 3.5 mph SE5.6 kmh SE 8.1 mph13.0 kmh 29.88 in1011.9 mb - 0.00 in0.0 mm 0.02 in0.5 mm
08:00 AM 31.5°F-0.3°C 20.7°F-6.3°C 64% 2.3 mph SE3.7 kmh SE 4.6 mph7.4 kmh 29.88 in1011.9 mb - 0.00 in0.0 mm 0.02 in0.5 mm
08:10 AM 31.7°F-0.2°C 20.9°F-6.2°C 64% 3.5 mph SE5.6 kmh SE 12.7 mph20.4 kmh 29.88 in1011.9 mb - 0.00 in0.0 mm 0.02 in0.5 mm
08:20 AM 31.7°F-0.2°C 20.9°F-6.2°C 64% 6.9 mph SSE11.1 kmh SSE 9.2 mph14.8 kmh 29.88 in1011.9 mb - 0.00 in0.0 mm 0.02 in0.5 mm
08:30 AM 31.5°F-0.3°C 20.7°F-6.3°C 64% 5.8 mph SE9.3 kmh SE 9.2 mph14.8 kmh 29.88 in1011.9 mb - 0.00 in0.0 mm 0.02 in0.5 mm
08:40 AM 31.8°F-0.1°C 21.4°F-5.9°C 65% 5.8 mph SSE9.3 kmh SSE 11.5 mph18.5 kmh 29.88 in1011.9 mb - 0.00 in0.0 mm 0.02 in0.5 mm
08:50 AM 32.1°F0.1°C 21.3°F-5.9°C 64% 8.1 mph SW13.0 kmh SW 11.5 mph18.5 kmh 29.89 in1012.2 mb - 0.00 in0.0 mm 0.02 in0.5 mm
09:00 AM 31.9°F-0.1°C 21.5°F-5.8°C 65% 6.9 mph S11.1 kmh S 11.5 mph18.5 kmh 29.89 in1012.2 mb - 0.00 in0.0 mm 0.02 in0.5 mm
09:10 AM 31.9°F-0.1°C 21.8°F-5.7°C 66% 11.5 mph S18.5 kmh S 16.1 mph25.9 kmh 29.89 in1012.2 mb - 0.00 in0.0 mm 0.02 in0.5 mm
09:20 AM 31.8°F-0.1°C 22.4°F-5.3°C 68% 6.9 mph S11.1 kmh S 11.5 mph18.5 kmh 29.89 in1012.2 mb - 0.00 in0.0 mm 0.02 in0.5 mm
09:30 AM 31.7°F-0.2°C 22.7°F-5.2°C 69% 9.2 mph S14.8 kmh S 12.7 mph20.4 kmh 29.90 in1012.5 mb - 0.00 in0.0 mm 0.02 in0.5 mm
09:40 AM 31.9°F-0.1°C 23.6°F-4.7°C 71% 5.8 mph S9.3 kmh S 9.2 mph14.8 kmh 29.90 in1012.5 mb - 0.00 in0.0 mm 0.02 in0.5 mm
09:50 AM 32.1°F0.1°C 24.0°F-4.4°C 72% 5.8 mph S9.3 kmh S 8.1 mph13.0 kmh 29.91 in1012.9 mb - 0.00 in0.0 mm 0.02 in0.5 mm
10:00 AM 32.4°F0.2°C 24.4°F-4.2°C 72% 3.5 mph SSW5.6 kmh SSW 5.8 mph9.3 kmh 29.91 in1012.9 mb - 0.00 in0.0 mm 0.02 in0.5 mm
10:10 AM 32.8°F0.4°C 24.4°F-4.2°C 71% 5.8 mph SE9.3 kmh SE 8.1 mph13.0 kmh 29.91 in1012.9 mb - 0.00 in0.0 mm 0.02 in0.5 mm
10:20 AM 33.1°F0.6°C 23.7°F-4.6°C 68% 2.3 mph S3.7 kmh S 6.9 mph11.1 kmh 29.91 in1012.9 mb - 0.00 in0.0 mm 0.02 in0.5 mm
10:30 AM 33.3°F0.7°C 23.5°F-4.7°C 67% 4.6 mph SSW7.4 kmh SSW 8.1 mph13.0 kmh 29.92 in1013.2 mb - 0.00 in0.0 mm 0.02 in0.5 mm
10:40 AM 34.1°F1.2°C 20.4°F-6.4°C 57% 5.8 mph SSW9.3 kmh SSW 11.5 mph18.5 kmh 29.91 in1012.9 mb - 0.00 in0.0 mm 0.02 in0.5 mm
10:50 AM 34.4°F1.3°C 19.5°F-6.9°C 54% 3.5 mph S5.6 kmh S 3.5 mph5.6 kmh 29.92 in1013.2 mb - 0.00 in0.0 mm 0.02 in0.5 mm
11:00 AM 34.6°F1.4°C 19.2°F-7.1°C 53% 4.6 mph SW7.4 kmh SW 10.4 mph16.7 kmh 29.92 in1013.2 mb - 0.00 in0.0 mm 0.02 in0.5 mm
11:10 AM 34.7°F1.5°C 18.9°F-7.3°C 52% 2.3 mph WSW3.7 kmh WSW 3.5 mph5.6 kmh 29.92 in1013.2 mb - 0.00 in0.0 mm 0.02 in0.5 mm
11:20 AM 35.7°F2.1°C 18.4°F-7.6°C 49% 10.4 mph SW16.7 kmh SW 11.5 mph18.5 kmh 29.92 in1013.2 mb - 0.00 in0.0 mm 0.02 in0.5 mm
11:30 AM 36.0°F2.2°C 18.2°F-7.7°C 48% 6.9 mph WSW11.1 kmh WSW 11.5 mph18.5 kmh 29.93 in1013.5 mb - 0.00 in0.0 mm 0.02 in0.5 mm
11:40 AM 36.2°F2.3°C 18.4°F-7.6°C 48% 5.8 mph SW9.3 kmh SW 15.0 mph24.1 kmh 29.93 in1013.5 mb - 0.00 in0.0 mm 0.02 in0.5 mm
11:50 AM 36.6°F2.6°C 17.7°F-7.9°C 46% 5.8 mph WSW9.3 kmh WSW 9.2 mph14.8 kmh 29.93 in1013.5 mb - 0.00 in0.0 mm 0.02 in0.5 mm
12:00 PM 36.5°F2.5°C 20.1°F-6.6°C 51% 8.1 mph W13.0 kmh W 15.0 mph24.1 kmh 29.93 in1013.5 mb - 0.00 in0.0 mm 0.02 in0.5 mm
12:10 PM 36.7°F2.6°C 20.3°F-6.5°C 51% 12.7 mph W20.4 kmh W 17.3 mph27.8 kmh 29.93 in1013.5 mb - 0.00 in0.0 mm 0.02 in0.5 mm
12:20 PM 37.5°F3.1°C 21.0°F-6.1°C 51% 6.9 mph W11.1 kmh W 13.8 mph22.2 kmh 29.93 in1013.5 mb - 0.00 in0.0 mm 0.02 in0.5 mm
12:30 PM 39.5°F4.2°C 20.4°F-6.4°C 46% 8.1 mph W13.0 kmh W 12.7 mph20.4 kmh 29.92 in1013.2 mb - 0.01 in0.3 mm 0.03 in0.8 mm
12:40 PM 40.1°F4.5°C 21.0°F-6.1°C 46% 10.4 mph WSW16.7 kmh WSW 18.4 mph29.6 kmh 29.91 in1012.9 mb - 0.00 in0.0 mm 0.03 in0.8 mm
12:50 PM 38.8°F3.8°C 18.8°F-7.3°C 44% 10.4 mph W16.7 kmh W 13.8 mph22.2 kmh 29.91 in1012.9 mb - 0.00 in0.0 mm 0.03 in0.8 mm
01:00 PM 38.1°F3.4°C 18.1°F-7.7°C 44% 11.5 mph W18.5 kmh W 16.1 mph25.9 kmh 29.91 in1012.9 mb - 0.00 in0.0 mm 0.03 in0.8 mm
01:10 PM 37.3°F2.9°C 18.4°F-7.6°C 46% 10.4 mph WSW16.7 kmh WSW 18.4 mph29.6 kmh 29.90 in1012.5 mb - 0.00 in0.0 mm 0.03 in0.8 mm
01:20 PM 38.2°F3.4°C 18.7°F-7.4°C 45% 10.4 mph W16.7 kmh W 19.6 mph31.5 kmh 29.89 in1012.2 mb - 0.00 in0.0 mm 0.03 in0.8 mm
01:30 PM 38.9°F3.8°C 19.3°F-7.1°C 45% 10.4 mph W16.7 kmh W 17.3 mph27.8 kmh 29.89 in1012.2 mb - 0.00 in0.0 mm 0.03 in0.8 mm
01:40 PM 39.3°F4.1°C 18.1°F-7.7°C 42% 10.4 mph W16.7 kmh W 19.6 mph31.5 kmh 29.89 in1012.2 mb - 0.00 in0.0 mm 0.03 in0.8 mm
01:50 PM 38.4°F3.6°C 18.4°F-7.6°C 44% 9.2 mph W14.8 kmh W 15.0 mph24.1 kmh 29.90 in1012.5 mb - 0.00 in0.0 mm 0.03 in0.8 mm
02:00 PM 38.8°F3.8°C 18.7°F-7.4°C 44% 6.9 mph W11.1 kmh W 17.3 mph27.8 kmh 29.90 in1012.5 mb - 0.00 in0.0 mm 0.03 in0.8 mm
02:10 PM 38.5°F3.6°C 17.9°F-7.8°C 43% 5.8 mph W9.3 kmh W 10.4 mph16.7 kmh 29.90 in1012.5 mb - 0.00 in0.0 mm 0.03 in0.8 mm
02:20 PM 38.0°F3.3°C 18.0°F-7.8°C 44% 4.6 mph W7.4 kmh W 5.8 mph9.3 kmh 29.90 in1012.5 mb - 0.00 in0.0 mm 0.03 in0.8 mm
02:30 PM 38.2°F3.4°C 18.2°F-7.7°C 44% 8.1 mph WSW13.0 kmh WSW 12.7 mph20.4 kmh 29.91 in1012.9 mb - 0.00 in0.0 mm 0.03 in0.8 mm
02:40 PM 37.9°F3.3°C 16.8°F-8.4°C 42% 11.5 mph W18.5 kmh W 16.1 mph25.9 kmh 29.91 in1012.9 mb - 0.00 in0.0 mm 0.03 in0.8 mm
02:50 PM 37.5°F3.1°C 15.9°F-8.9°C 41% 9.2 mph W14.8 kmh W 16.1 mph25.9 kmh 29.91 in1012.9 mb - 0.00 in0.0 mm 0.03 in0.8 mm
03:00 PM 37.2°F2.9°C 15.6°F-9.1°C 41% 9.2 mph W14.8 kmh W 11.5 mph18.5 kmh 29.91 in1012.9 mb - 0.00 in0.0 mm 0.03 in0.8 mm
03:10 PM 37.2°F2.9°C 16.2°F-8.8°C 42% 9.2 mph WSW14.8 kmh WSW 20.7 mph33.3 kmh 29.91 in1012.9 mb - 0.00 in0.0 mm 0.03 in0.8 mm
03:20 PM 37.5°F3.1°C 16.4°F-8.7°C 42% 10.4 mph W16.7 kmh W 18.4 mph29.6 kmh 29.91 in1012.9 mb - 0.00 in0.0 mm 0.03 in0.8 mm
03:30 PM 37.5°F3.1°C 17.6°F-8.0°C 44% 13.8 mph W22.2 kmh W 25.3 mph40.7 kmh 29.91 in1012.9 mb - 0.00 in0.0 mm 0.03 in0.8 mm
03:40 PM 37.8°F3.2°C 17.3°F-8.2°C 43% 12.7 mph W20.4 kmh W 17.3 mph27.8 kmh 29.91 in1012.9 mb - 0.00 in0.0 mm 0.03 in0.8 mm
03:50 PM 37.8°F3.2°C 18.3°F-7.6°C 45% 12.7 mph W20.4 kmh W 26.5 mph42.6 kmh 29.91 in1012.9 mb - 0.00 in0.0 mm 0.03 in0.8 mm
04:00 PM 39.7°F4.3°C 19.0°F-7.2°C 43% 13.8 mph WSW22.2 kmh WSW 26.5 mph42.6 kmh 29.91 in1012.9 mb - 0.00 in0.0 mm 0.03 in0.8 mm
04:10 PM 40.1°F4.5°C 18.3°F-7.6°C 41% 15.0 mph WSW24.1 kmh WSW 20.7 mph33.3 kmh 29.91 in1012.9 mb - 0.00 in0.0 mm 0.03 in0.8 mm
04:20 PM 40.2°F4.6°C 17.8°F-7.9°C 40% 13.8 mph WSW22.2 kmh WSW 28.8 mph46.3 kmh 29.93 in1013.5 mb - 0.00 in0.0 mm 0.03 in0.8 mm
04:30 PM 39.0°F3.9°C 17.9°F-7.8°C 42% 15.0 mph W24.1 kmh W 21.9 mph35.2 kmh 29.93 in1013.5 mb - 0.00 in0.0 mm 0.03 in0.8 mm
04:40 PM 38.4°F3.6°C 17.8°F-7.9°C 43% 10.4 mph W16.7 kmh W 18.4 mph29.6 kmh 29.94 in1013.9 mb - 0.00 in0.0 mm 0.03 in0.8 mm
04:50 PM 38.1°F3.4°C 17.0°F-8.3°C 42% 10.4 mph W16.7 kmh W 19.6 mph31.5 kmh 29.95 in1014.2 mb - 0.00 in0.0 mm 0.03 in0.8 mm
05:00 PM 38.9°F3.8°C 18.2°F-7.7°C 43% 8.1 mph W13.0 kmh W 20.7 mph33.3 kmh 29.96 in1014.6 mb - 0.00 in0.0 mm 0.03 in0.8 mm
05:10 PM 39.5°F4.2°C 18.3°F-7.6°C 42% 4.6 mph W7.4 kmh W 11.5 mph18.5 kmh 29.97 in1014.9 mb - 0.00 in0.0 mm 0.03 in0.8 mm
05:20 PM 39.5°F4.2°C 18.3°F-7.6°C 42% 10.4 mph W16.7 kmh W 17.3 mph27.8 kmh 29.98 in1015.2 mb - 0.00 in0.0 mm 0.03 in0.8 mm
05:30 PM 38.7°F3.7°C 19.2°F-7.1°C 45% 9.2 mph W14.8 kmh W 13.8 mph22.2 kmh 29.98 in1015.2 mb - 0.00 in0.0 mm 0.03 in0.8 mm
05:40 PM 38.1°F3.4°C 19.2°F-7.1°C 46% 8.1 mph WNW13.0 kmh WNW 10.4 mph16.7 kmh 29.99 in1015.6 mb - 0.00 in0.0 mm 0.03 in0.8 mm
05:50 PM 37.6°F3.1°C 18.7°F-7.4°C 46% 3.5 mph W5.6 kmh W 9.2 mph14.8 kmh 29.99 in1015.6 mb - 0.00 in0.0 mm 0.03 in0.8 mm
06:00 PM 37.2°F2.9°C 18.3°F-7.6°C 46% 3.5 mph WNW5.6 kmh WNW 17.3 mph27.8 kmh 30.00 in1015.9 mb - 0.00 in0.0 mm 0.03 in0.8 mm
06:10 PM 36.5°F2.5°C 18.6°F-7.4°C 48% 5.8 mph W9.3 kmh W 12.7 mph20.4 kmh 30.01 in1016.3 mb - 0.00 in0.0 mm 0.03 in0.8 mm
06:20 PM 36.1°F2.3°C 18.3°F-7.6°C 48% 9.2 mph W14.8 kmh W 12.7 mph20.4 kmh 30.01 in1016.3 mb - 0.00 in0.0 mm 0.03 in0.8 mm
06:30 PM 35.9°F2.2°C 18.1°F-7.7°C 48% 4.6 mph W7.4 kmh W 13.8 mph22.2 kmh 30.01 in1016.3 mb - 0.00 in0.0 mm 0.03 in0.8 mm
06:40 PM 35.6°F2.0°C 17.3°F-8.2°C 47% 2.3 mph W3.7 kmh W 9.2 mph14.8 kmh 30.02 in1016.6 mb - 0.00 in0.0 mm 0.03 in0.8 mm
06:50 PM 35.2°F1.8°C 16.9°F-8.4°C 47% 3.5 mph W5.6 kmh W 9.2 mph14.8 kmh 30.02 in1016.6 mb - 0.00 in0.0 mm 0.03 in0.8 mm
07:00 PM 35.0°F1.7°C 16.7°F-8.5°C 47% 4.6 mph WSW7.4 kmh WSW 5.8 mph9.3 kmh 30.03 in1016.9 mb - 0.00 in0.0 mm 0.03 in0.8 mm
07:10 PM 34.8°F1.6°C 17.1°F-8.3°C 48% 1.2 mph W1.9 kmh W 3.5 mph5.6 kmh 30.03 in1016.9 mb - 0.00 in0.0 mm 0.03 in0.8 mm
07:20 PM 34.7°F1.5°C 17.0°F-8.3°C 48% 1.2 mph W1.9 kmh W 3.5 mph5.6 kmh 30.04 in1017.3 mb - 0.00 in0.0 mm 0.03 in0.8 mm
07:30 PM 34.6°F1.4°C 16.9°F-8.4°C 48% Calm Calm -- 30.04 in1017.3 mb - 0.00 in0.0 mm 0.03 in0.8 mm
07:40 PM 34.5°F1.4°C 16.8°F-8.4°C 48% Calm Calm 3.5 mph5.6 kmh 30.04 in1017.3 mb - 0.00 in0.0 mm 0.03 in0.8 mm
07:50 PM 34.3°F1.3°C 16.1°F-8.8°C 47% Calm Calm -- 30.04 in1017.3 mb - 0.00 in0.0 mm 0.03 in0.8 mm
08:00 PM 34.0°F1.1°C 15.8°F-9.0°C 47% Calm Calm 1.2 mph1.9 kmh 30.05 in1017.6 mb - 0.00 in0.0 mm 0.03 in0.8 mm
08:10 PM 33.8°F1.0°C 15.2°F-9.3°C 46% 1.2 mph WNW1.9 kmh WNW 3.5 mph5.6 kmh 30.05 in1017.6 mb - 0.00 in0.0 mm 0.03 in0.8 mm
08:20 PM 33.7°F0.9°C 14.6°F-9.7°C 45% 5.8 mph WNW9.3 kmh WNW 9.2 mph14.8 kmh 30.06 in1017.9 mb - 0.00 in0.0 mm 0.03 in0.8 mm
08:30 PM 33.5°F0.8°C 14.4°F-9.8°C 45% 6.9 mph W11.1 kmh W 11.5 mph18.5 kmh 30.06 in1017.9 mb - 0.00 in0.0 mm 0.03 in0.8 mm
08:40 PM 33.4°F0.8°C 14.3°F-9.8°C 45% 4.6 mph WNW7.4 kmh WNW 6.9 mph11.1 kmh 30.06 in1017.9 mb - 0.00 in0.0 mm 0.03 in0.8 mm
08:50 PM 33.2°F0.7°C 14.1°F-9.9°C 45% 5.8 mph WSW9.3 kmh WSW 12.7 mph20.4 kmh 30.06 in1017.9 mb - 0.00 in0.0 mm 0.03 in0.8 mm
09:00 PM 33.1°F0.6°C 14.5°F-9.7°C 46% 4.6 mph W7.4 kmh W 13.8 mph22.2 kmh 30.06 in1017.9 mb - 0.00 in0.0 mm 0.03 in0.8 mm
09:10 PM 32.8°F0.4°C 14.7°F-9.6°C 47% 3.5 mph W5.6 kmh W 9.2 mph14.8 kmh 30.06 in1017.9 mb - 0.00 in0.0 mm 0.03 in0.8 mm
09:20 PM 32.4°F0.2°C 14.9°F-9.5°C 48% 4.6 mph WNW7.4 kmh WNW 6.9 mph11.1 kmh 30.07 in1018.3 mb - 0.00 in0.0 mm 0.03 in0.8 mm
09:30 PM 32.2°F0.1°C 14.7°F-9.6°C 48% 2.3 mph WNW3.7 kmh WNW 6.9 mph11.1 kmh 30.07 in1018.3 mb - 0.00 in0.0 mm 0.03 in0.8 mm
09:40 PM 32.1°F0.1°C 14.6°F-9.7°C 48% 2.3 mph WNW3.7 kmh WNW 5.8 mph9.3 kmh 30.08 in1018.6 mb - 0.00 in0.0 mm 0.03 in0.8 mm
09:50 PM 31.9°F-0.1°C 14.4°F-9.8°C 48% 4.6 mph NW7.4 kmh NW 9.2 mph14.8 kmh 30.08 in1018.6 mb - 0.00 in0.0 mm 0.03 in0.8 mm
10:00 PM 31.8°F-0.1°C 14.8°F-9.6°C 49% 3.5 mph WNW5.6 kmh WNW 6.9 mph11.1 kmh 30.08 in1018.6 mb - 0.00 in0.0 mm 0.03 in0.8 mm
10:10 PM 31.5°F-0.3°C 14.5°F-9.7°C 49% 3.5 mph WNW5.6 kmh WNW 6.9 mph11.1 kmh 30.08 in1018.6 mb - 0.00 in0.0 mm 0.03 in0.8 mm
10:20 PM 31.2°F-0.4°C 14.2°F-9.9°C 49% 1.2 mph WNW1.9 kmh WNW 2.3 mph3.7 kmh 30.09 in1019.0 mb - 0.00 in0.0 mm 0.03 in0.8 mm
10:30 PM 31.0°F-0.6°C 14.5°F-9.7°C 50% Calm Calm 1.2 mph1.9 kmh 30.09 in1019.0 mb - 0.00 in0.0 mm 0.03 in0.8 mm
10:40 PM 30.7°F-0.7°C 14.2°F-9.9°C 50% 5.8 mph NW9.3 kmh NW 8.1 mph13.0 kmh 30.09 in1019.0 mb - 0.00 in0.0 mm 0.03 in0.8 mm
10:50 PM 30.8°F-0.7°C 14.3°F-9.8°C 50% 4.6 mph NW7.4 kmh NW 5.8 mph9.3 kmh 30.09 in1019.0 mb - 0.00 in0.0 mm 0.03 in0.8 mm
11:00 PM 30.7°F-0.7°C 13.8°F-10.1°C 49% 2.3 mph NW3.7 kmh NW 8.1 mph13.0 kmh 30.10 in1019.3 mb - 0.00 in0.0 mm 0.03 in0.8 mm
11:10 PM 30.8°F-0.7°C 13.8°F-10.1°C 49% Calm Calm 1.2 mph1.9 kmh 30.10 in1019.3 mb - 0.00 in0.0 mm 0.03 in0.8 mm
11:20 PM 30.6°F-0.8°C 13.7°F-10.2°C 49% 1.2 mph NNE1.9 kmh NNE 5.8 mph9.3 kmh 30.11 in1019.6 mb - 0.00 in0.0 mm 0.03 in0.8 mm
11:30 PM 30.5°F-0.8°C 13.1°F-10.5°C 48% 6.9 mph N11.1 kmh N 9.2 mph14.8 kmh 30.11 in1019.6 mb - 0.00 in0.0 mm 0.03 in0.8 mm
11:40 PM 30.4°F-0.9°C 13.5°F-10.3°C 49% Calm Calm -- 30.11 in1019.6 mb - 0.00 in0.0 mm 0.03 in0.8 mm
11:50 PM 29.8°F-1.2°C 12.9°F-10.6°C 49% Calm Calm -- 30.11 in1019.6 mb - 0.00 in0.0 mm 0.03 in0.8 mm